createdAt,value
2023-03-20T00:00:02.714Z,54.50
2023-03-20T00:02:33.769Z,54.60
2023-03-20T00:05:03.066Z,54.50
2023-03-20T00:07:32.459Z,54.50
2023-03-20T00:10:01.940Z,54.50
2023-03-20T00:12:33.439Z,54.40
2023-03-20T00:15:06.921Z,54.30
2023-03-20T00:17:36.423Z,54.40
2023-03-20T00:20:06.323Z,54.30
2023-03-20T00:22:35.479Z,54.20
2023-03-20T00:25:05.806Z,54.20
2023-03-20T00:27:36.610Z,54.10
2023-03-20T00:30:15.379Z,54.10
2023-03-20T00:32:44.622Z,54.00
2023-03-20T00:35:21.362Z,54.00
2023-03-20T00:37:51.047Z,53.90
2023-03-20T00:40:21.224Z,53.90
2023-03-20T00:42:54.552Z,53.90
2023-03-20T00:45:23.957Z,53.80
2023-03-20T00:47:54.092Z,53.80
2023-03-20T00:50:26.216Z,53.80
2023-03-20T00:52:55.674Z,53.80
2023-03-20T00:55:28.690Z,53.70
2023-03-20T00:58:00.937Z,53.70
2023-03-20T01:00:39.782Z,53.60
2023-03-20T01:03:15.822Z,53.50
2023-03-20T01:05:46.147Z,53.60
2023-03-20T01:08:17.254Z,53.50
2023-03-20T01:10:47.956Z,53.50
2023-03-20T01:13:24.657Z,53.40
2023-03-20T01:15:55.477Z,53.40
2023-03-20T01:18:26.291Z,52.80
2023-03-20T01:20:55.633Z,53.40
2023-03-20T01:23:26.825Z,53.40
2023-03-20T01:25:56.308Z,53.30
2023-03-20T01:28:27.342Z,53.30
2023-03-20T01:30:56.743Z,53.30
2023-03-20T01:33:26.802Z,53.20
2023-03-20T01:35:59.647Z,53.30
2023-03-20T01:38:29.639Z,53.20
2023-03-20T01:41:04.821Z,53.10
2023-03-20T01:43:37.106Z,53.10
2023-03-20T01:46:17.711Z,53.10
2023-03-20T01:49:35.376Z,53.00
2023-03-20T01:52:05.520Z,53.00
2023-03-20T01:54:39.266Z,53.00
2023-03-20T01:57:16.525Z,53.00
2023-03-20T01:59:49.896Z,52.90
2023-03-20T02:02:24.597Z,52.90
2023-03-20T02:04:58.195Z,52.90
2023-03-20T02:07:27.720Z,52.80
2023-03-20T02:10:03.850Z,52.80
2023-03-20T02:12:43.599Z,52.80
2023-03-20T02:15:19.249Z,52.80
2023-03-20T02:18:06.750Z,52.70
2023-03-20T02:20:51.665Z,52.70
2023-03-20T02:23:51.410Z,52.70
2023-03-20T02:26:44.381Z,52.60
2023-03-20T02:30:09.405Z,52.60
2023-03-20T02:33:18.138Z,52.60
2023-03-20T02:36:20.099Z,52.50
2023-03-20T02:39:16.128Z,52.50
2023-03-20T02:41:53.063Z,52.50
2023-03-20T02:44:26.959Z,52.50
2023-03-20T02:47:08.408Z,52.50
2023-03-20T02:49:55.527Z,52.40
2023-03-20T02:52:35.146Z,52.30
2023-03-20T02:55:16.130Z,52.30
2023-03-20T02:57:52.508Z,52.30
2023-03-20T03:00:29.701Z,52.30
2023-03-20T03:03:06.253Z,52.30
2023-03-20T03:05:40.028Z,52.20
2023-03-20T03:08:13.918Z,52.20
2023-03-20T03:10:48.825Z,52.20
2023-03-20T03:13:26.362Z,52.10
2023-03-20T03:16:03.299Z,52.10
2023-03-20T03:18:36.208Z,52.10
2023-03-20T03:21:08.102Z,52.10
2023-03-20T03:23:44.960Z,52.10
2023-03-20T03:26:20.586Z,52.00
2023-03-20T03:28:55.100Z,51.90
2023-03-20T03:31:25.945Z,51.90
2023-03-20T03:33:57.631Z,51.90
2023-03-20T03:36:39.072Z,51.90
2023-03-20T03:39:16.826Z,51.80
2023-03-20T03:41:53.541Z,51.90
2023-03-20T03:44:28.253Z,51.80
2023-03-20T03:47:01.384Z,51.80
2023-03-20T03:49:34.307Z,51.80
2023-03-20T03:52:07.251Z,51.80
2023-03-20T03:54:41.978Z,51.80
2023-03-20T03:57:35.539Z,51.60
2023-03-20T04:00:08.772Z,51.70
2023-03-20T04:02:45.363Z,51.70
2023-03-20T04:05:17.409Z,51.60
2023-03-20T04:07:46.903Z,51.60
2023-03-20T04:10:16.792Z,51.60
2023-03-20T04:12:47.689Z,51.60
2023-03-20T04:15:18.628Z,51.50
2023-03-20T04:17:47.995Z,51.50
2023-03-20T04:20:18.770Z,51.60
2023-03-20T04:22:49.619Z,51.60
2023-03-20T04:25:21.397Z,51.70
2023-03-20T04:27:54.087Z,51.50
2023-03-20T04:30:54.456Z,51.50
2023-03-20T04:33:47.010Z,51.60
2023-03-20T04:36:45.702Z,51.40
2023-03-20T04:39:17.263Z,51.50
2023-03-20T04:41:47.431Z,51.40
2023-03-20T04:44:18.424Z,51.40
2023-03-20T04:46:48.798Z,51.40
2023-03-20T04:49:19.145Z,51.40
2023-03-20T04:51:48.500Z,51.30
2023-03-20T04:54:21.919Z,51.40
2023-03-20T04:56:51.209Z,51.30
2023-03-20T04:59:24.040Z,51.40
2023-03-20T05:01:53.508Z,51.30
2023-03-20T05:04:24.871Z,51.30
2023-03-20T05:06:54.411Z,51.30
2023-03-20T05:09:27.629Z,51.30
2023-03-20T05:11:58.120Z,51.30
2023-03-20T05:15:00.921Z,51.20
2023-03-20T05:17:38.994Z,51.30
2023-03-20T05:20:28.500Z,51.20
2023-03-20T05:23:11.586Z,51.20
2023-03-20T05:25:51.663Z,51.20
2023-03-20T05:28:26.771Z,51.20
2023-03-20T05:31:12.513Z,51.20
2023-03-20T05:34:05.487Z,51.20
2023-03-20T05:36:56.662Z,51.20
2023-03-20T05:39:25.825Z,51.20
2023-03-20T05:42:13.583Z,51.10
2023-03-20T05:44:52.088Z,51.30
2023-03-20T05:47:44.093Z,51.20
2023-03-20T05:50:36.412Z,51.20
2023-03-20T05:53:16.001Z,51.20
2023-03-20T05:55:56.957Z,51.20
2023-03-20T05:58:44.540Z,51.20
2023-03-20T06:01:36.720Z,51.20
2023-03-20T06:04:21.364Z,51.20
2023-03-20T06:07:14.998Z,51.10
2023-03-20T06:09:47.468Z,51.10
2023-03-20T06:12:17.475Z,51.10
2023-03-20T06:14:46.678Z,51.10
2023-03-20T06:17:16.263Z,51.10
2023-03-20T06:19:51.719Z,51.10
2023-03-20T06:22:21.127Z,51.10
2023-03-20T06:24:50.454Z,51.10
2023-03-20T06:27:20.890Z,51.10
2023-03-20T06:29:51.499Z,51.10
2023-03-20T06:32:27.577Z,51.10
2023-03-20T06:35:01.608Z,51.10
2023-03-20T06:37:31.580Z,51.10
2023-03-20T06:40:11.161Z,51.20
2023-03-20T06:42:40.456Z,51.50
2023-03-20T06:45:12.481Z,51.70
2023-03-20T06:48:21.997Z,51.80
2023-03-20T06:50:53.941Z,51.90
2023-03-20T06:53:27.251Z,52.10
2023-03-20T06:56:07.237Z,52.10
2023-03-20T06:58:36.558Z,52.00
2023-03-20T07:01:11.033Z,51.90
2023-03-20T07:03:41.668Z,51.60
2023-03-20T07:06:14.098Z,51.60
2023-03-20T07:08:44.966Z,51.60
2023-03-20T07:11:14.696Z,51.60
2023-03-20T07:13:44.267Z,51.70
2023-03-20T07:16:27.918Z,51.80
2023-03-20T07:18:57.546Z,51.90
2023-03-20T07:21:29.142Z,51.70
2023-03-20T07:23:58.570Z,51.50
2023-03-20T07:26:28.324Z,51.40
2023-03-20T07:28:57.555Z,51.70
2023-03-20T07:31:31.373Z,51.60
2023-03-20T07:34:17.054Z,51.60
2023-03-20T07:36:49.553Z,51.50
2023-03-20T07:39:22.568Z,51.60
2023-03-20T07:42:21.070Z,51.70
2023-03-20T07:45:00.223Z,51.80
2023-03-20T07:47:29.901Z,51.80
2023-03-20T07:49:59.392Z,51.70
2023-03-20T07:52:30.472Z,51.70
2023-03-20T07:54:59.853Z,51.70
2023-03-20T07:57:29.231Z,51.70
2023-03-20T07:59:59.738Z,51.70
2023-03-20T08:02:29.770Z,52.30
2023-03-20T08:04:59.709Z,51.60
2023-03-20T08:07:31.568Z,51.40
2023-03-20T08:10:01.733Z,51.00
2023-03-20T08:12:31.037Z,51.10
2023-03-20T08:15:00.231Z,51.30
2023-03-20T08:17:29.797Z,51.30
2023-03-20T08:19:59.316Z,51.00
2023-03-20T08:22:30.108Z,51.10
2023-03-20T08:24:59.378Z,51.20
2023-03-20T08:27:28.611Z,51.20
2023-03-20T08:29:57.875Z,51.00
2023-03-20T08:32:27.583Z,50.90
2023-03-20T08:34:56.772Z,51.00
2023-03-20T08:37:26.115Z,51.00
2023-03-20T08:39:56.948Z,50.90
2023-03-20T08:42:26.324Z,50.70
2023-03-20T08:44:55.591Z,50.70
2023-03-20T08:47:25.010Z,50.70
2023-03-20T08:49:54.218Z,50.60
2023-03-20T08:52:23.443Z,50.70
2023-03-20T08:54:52.652Z,50.80
2023-03-20T08:57:23.674Z,51.60
2023-03-20T08:59:53.033Z,52.40
2023-03-20T09:02:22.452Z,51.70
2023-03-20T09:04:51.946Z,51.60
2023-03-20T09:07:22.137Z,51.40
2023-03-20T09:09:51.496Z,51.50
2023-03-20T09:12:20.738Z,51.30
2023-03-20T09:14:51.517Z,51.20
2023-03-20T09:17:20.814Z,51.10
2023-03-20T09:19:50.078Z,51.10
2023-03-20T09:22:19.352Z,50.90
2023-03-20T09:24:48.776Z,51.10
2023-03-20T09:27:18.237Z,51.00
2023-03-20T09:29:47.487Z,51.60
2023-03-20T09:32:18.308Z,51.20
2023-03-20T09:34:47.665Z,51.00
2023-03-20T09:37:18.774Z,50.70
2023-03-20T09:39:53.966Z,50.30
2023-03-20T09:42:34.254Z,50.00
2023-03-20T09:45:23.244Z,49.60
2023-03-20T09:48:03.159Z,49.80
2023-03-20T09:50:38.622Z,50.10
2023-03-20T09:53:15.201Z,49.90
2023-03-20T09:55:45.984Z,49.90
2023-03-20T09:58:21.202Z,49.90
2023-03-20T10:00:50.899Z,49.90
2023-03-20T10:03:28.370Z,49.90
2023-03-20T10:06:01.880Z,50.40
2023-03-20T10:08:34.606Z,49.80
2023-03-20T10:11:27.890Z,49.80
2023-03-20T10:14:14.940Z,49.70
2023-03-20T10:16:56.795Z,49.70
2023-03-20T10:19:31.453Z,49.70
2023-03-20T10:22:07.753Z,49.90
2023-03-20T10:24:43.187Z,49.70
2023-03-20T10:27:20.990Z,49.70
2023-03-20T10:30:01.690Z,49.60
2023-03-20T10:32:37.606Z,49.50
2023-03-20T10:35:22.382Z,49.40
2023-03-20T10:38:14.613Z,49.40
2023-03-20T10:40:44.916Z,49.30
2023-03-20T10:43:19.712Z,49.20
2023-03-20T10:45:53.713Z,49.00
2023-03-20T10:48:28.512Z,49.00
2023-03-20T10:51:02.347Z,49.40
2023-03-20T10:53:35.860Z,49.70
2023-03-20T10:56:09.441Z,50.30
2023-03-20T10:58:42.498Z,50.00
2023-03-20T11:01:12.342Z,50.20
2023-03-20T11:03:41.655Z,50.30
2023-03-20T11:06:20.878Z,50.00
2023-03-20T11:08:52.698Z,50.10
2023-03-20T11:11:28.258Z,50.40
2023-03-20T11:13:59.613Z,51.00
2023-03-20T11:16:33.898Z,50.90
2023-03-20T11:19:08.847Z,50.90
2023-03-20T11:21:48.976Z,50.80
2023-03-20T11:24:38.392Z,50.90
2023-03-20T11:27:09.978Z,51.00
2023-03-20T11:29:41.489Z,50.60
2023-03-20T11:32:23.792Z,51.20
2023-03-20T11:34:54.039Z,51.40
2023-03-20T11:37:28.957Z,51.60
2023-03-20T11:40:02.389Z,51.60
2023-03-20T11:42:32.317Z,51.80
2023-03-20T11:45:04.222Z,52.10
2023-03-20T11:47:35.887Z,52.60
2023-03-20T11:50:07.569Z,52.40
2023-03-20T11:52:41.202Z,53.00
2023-03-20T11:55:26.110Z,53.30
2023-03-20T11:57:59.436Z,53.10
2023-03-20T12:00:31.842Z,53.30
2023-03-20T12:03:01.667Z,53.40
2023-03-20T12:05:34.273Z,53.30
2023-03-20T12:08:10.825Z,53.50
2023-03-20T12:10:43.830Z,53.30
2023-03-20T12:13:18.443Z,53.40
2023-03-20T12:15:51.104Z,53.20
2023-03-20T12:18:28.247Z,53.20
2023-03-20T12:21:09.128Z,53.30
2023-03-20T12:23:44.769Z,53.40
2023-03-20T12:26:16.735Z,53.20
2023-03-20T12:28:52.016Z,53.10
2023-03-20T12:31:27.297Z,53.30
2023-03-20T12:34:01.930Z,53.30
2023-03-20T12:36:34.923Z,53.10
2023-03-20T12:39:07.941Z,53.10
2023-03-20T12:41:46.319Z,53.20
2023-03-20T12:44:31.296Z,53.30
2023-03-20T12:47:15.784Z,53.30
2023-03-20T12:49:55.661Z,53.40
2023-03-20T12:52:36.917Z,53.40
2023-03-20T12:55:17.811Z,53.50
2023-03-20T12:57:57.094Z,53.40
2023-03-20T13:00:32.540Z,53.40
2023-03-20T13:03:12.415Z,53.50
2023-03-20T13:05:48.739Z,53.60
2023-03-20T13:08:44.931Z,53.50
2023-03-20T13:11:24.385Z,53.60
2023-03-20T13:13:58.067Z,53.60
2023-03-20T13:16:39.456Z,53.60
2023-03-20T13:19:17.659Z,53.40
2023-03-20T13:21:55.658Z,53.30
2023-03-20T13:24:34.335Z,53.30
2023-03-20T13:27:13.169Z,53.30
2023-03-20T13:29:50.118Z,53.50
2023-03-20T13:32:34.060Z,53.00
2023-03-20T13:35:19.398Z,53.10
2023-03-20T13:37:52.381Z,53.10
2023-03-20T13:40:24.020Z,53.10
2023-03-20T13:42:59.862Z,53.90
2023-03-20T13:45:35.408Z,55.80
2023-03-20T13:48:14.653Z,56.10
2023-03-20T13:50:50.292Z,55.30
2023-03-20T13:53:31.852Z,55.70
2023-03-20T13:56:09.167Z,56.30
2023-03-20T14:01:40.479Z,57.40
2023-03-20T14:04:15.704Z,57.80
2023-03-20T14:06:54.490Z,58.60
2023-03-20T14:09:29.735Z,58.30
2023-03-20T14:12:03.288Z,58.40
2023-03-20T14:14:40.588Z,59.10
2023-03-20T14:17:17.240Z,59.80
2023-03-20T14:19:47.374Z,60.00
2023-03-20T14:22:21.876Z,60.00
2023-03-20T14:24:58.548Z,60.30
2023-03-20T14:27:44.488Z,60.30
2023-03-20T14:30:44.128Z,60.60
2023-03-20T14:33:28.004Z,60.90
2023-03-20T14:36:13.213Z,61.00
2023-03-20T14:38:54.426Z,61.10
2023-03-20T14:41:30.820Z,61.10
2023-03-20T14:44:14.684Z,61.50
2023-03-20T14:46:53.749Z,61.60
2023-03-20T14:49:38.487Z,61.10
2023-03-20T14:52:25.130Z,60.40
2023-03-20T14:54:55.307Z,60.60
2023-03-20T14:57:48.762Z,60.90
2023-03-20T15:00:25.017Z,60.80
2023-03-20T15:03:06.178Z,60.90
2023-03-20T15:05:37.946Z,61.30
2023-03-20T15:08:11.077Z,60.60
2023-03-20T15:10:48.750Z,60.80
2023-03-20T15:13:19.201Z,60.40
2023-03-20T15:15:56.611Z,60.00
2023-03-20T15:18:28.752Z,59.90
2023-03-20T15:20:58.932Z,59.90
2023-03-20T15:23:28.173Z,59.70
2023-03-20T15:25:57.482Z,59.50
2023-03-20T15:28:28.824Z,59.10
2023-03-20T15:31:01.748Z,59.30
2023-03-20T15:33:36.036Z,59.30
2023-03-20T15:36:13.425Z,59.50
2023-03-20T15:38:42.609Z,59.60
2023-03-20T15:41:27.005Z,59.40
2023-03-20T15:44:02.643Z,59.90
2023-03-20T15:46:32.052Z,59.90
2023-03-20T15:49:08.951Z,59.90
2023-03-20T15:51:38.515Z,59.60
2023-03-20T15:54:08.249Z,59.40
2023-03-20T15:56:52.756Z,60.10
2023-03-20T15:59:26.498Z,59.60
2023-03-20T16:01:58.843Z,59.60
2023-03-20T16:04:30.143Z,59.80
2023-03-20T16:07:00.800Z,60.00
2023-03-20T16:09:30.571Z,60.80
2023-03-20T16:12:01.668Z,59.70
2023-03-20T16:14:33.718Z,60.10
2023-03-20T16:17:05.001Z,60.50
2023-03-20T16:19:35.772Z,59.70
2023-03-20T16:22:13.706Z,59.80
2023-03-20T16:24:44.800Z,60.00
2023-03-20T16:27:21.019Z,59.50
2023-03-20T16:29:53.352Z,59.80
2023-03-20T16:32:31.335Z,60.20
2023-03-20T16:35:05.972Z,60.50
2023-03-20T16:37:44.536Z,60.30
2023-03-20T16:40:18.037Z,60.80
2023-03-20T16:42:47.766Z,60.90
2023-03-20T16:45:28.183Z,60.50
2023-03-20T16:48:25.322Z,60.50
2023-03-20T16:51:10.313Z,60.00
2023-03-20T16:53:43.687Z,59.60
2023-03-20T16:56:14.826Z,60.10
2023-03-20T16:58:47.216Z,60.50
2023-03-20T17:01:19.682Z,60.00
2023-03-20T17:03:53.587Z,59.90
2023-03-20T17:06:46.193Z,60.00
2023-03-20T17:09:23.579Z,60.20
2023-03-20T17:12:01.704Z,59.70
2023-03-20T17:14:31.113Z,59.60
2023-03-20T17:17:00.572Z,59.70
2023-03-20T17:19:29.800Z,59.50
2023-03-20T17:22:03.817Z,59.50
2023-03-20T17:24:33.155Z,59.60
2023-03-20T17:27:02.369Z,59.50
2023-03-20T17:29:31.618Z,59.40
2023-03-20T17:32:00.966Z,59.80
2023-03-20T17:34:30.496Z,59.50
2023-03-20T17:37:03.245Z,59.50
2023-03-20T17:39:32.775Z,59.40
2023-03-20T17:42:02.159Z,59.40
2023-03-20T17:44:31.644Z,59.20
2023-03-20T17:47:02.597Z,59.50
2023-03-20T17:49:32.359Z,59.60
2023-03-20T17:52:03.083Z,59.40
2023-03-20T17:54:32.330Z,59.60
2023-03-20T17:57:02.653Z,59.60
2023-03-20T17:59:32.527Z,59.70
2023-03-20T18:02:01.901Z,60.10
2023-03-20T18:04:31.062Z,60.00
2023-03-20T18:07:00.274Z,60.00
2023-03-20T18:09:31.688Z,60.00
2023-03-20T18:12:01.192Z,60.00
2023-03-20T18:14:30.380Z,60.40
2023-03-20T18:16:59.592Z,59.70
2023-03-20T18:19:30.555Z,59.70
2023-03-20T18:22:00.632Z,59.60
2023-03-20T18:24:31.351Z,60.00
2023-03-20T18:27:00.924Z,60.20
2023-03-20T18:29:30.467Z,60.10
2023-03-20T18:31:59.815Z,60.00
2023-03-20T18:34:29.199Z,60.00
2023-03-20T18:36:58.381Z,60.00
2023-03-20T18:39:27.669Z,60.00
2023-03-20T18:41:58.273Z,59.80
2023-03-20T18:44:27.622Z,59.50
2023-03-20T18:46:56.997Z,59.10
2023-03-20T18:49:26.264Z,58.70
2023-03-20T18:51:55.559Z,58.90
2023-03-20T18:54:24.781Z,58.70
2023-03-20T18:56:56.520Z,59.00
2023-03-20T18:59:27.564Z,59.50
2023-03-20T19:01:56.891Z,58.90
2023-03-20T19:04:27.394Z,59.70
2023-03-20T19:06:56.744Z,59.50
2023-03-20T19:09:26.262Z,59.10
2023-03-20T19:11:55.547Z,59.70
2023-03-20T19:14:25.929Z,59.30
2023-03-20T19:16:56.751Z,59.30
2023-03-20T19:19:26.020Z,59.00
2023-03-20T19:21:55.288Z,58.90
2023-03-20T19:24:25.289Z,59.00
2023-03-20T19:26:57.261Z,59.20
2023-03-20T19:29:28.163Z,59.50
2023-03-20T19:31:59.940Z,58.50
2023-03-20T19:35:10.876Z,58.50
2023-03-20T19:37:18.603Z,58.40
2023-03-20T19:39:47.843Z,58.20
2023-03-20T19:42:48.800Z,58.30
2023-03-20T19:45:07.415Z,58.50
2023-03-20T19:47:38.107Z,57.70
2023-03-20T19:50:08.209Z,57.90
2023-03-20T19:52:37.591Z,57.50
2023-03-20T19:55:07.826Z,57.40
2023-03-20T19:57:37.733Z,57.20
2023-03-20T20:00:54.762Z,57.00
2023-03-20T20:03:01.000Z,57.00
2023-03-20T20:05:32.920Z,56.80
2023-03-20T20:10:54.424Z,56.60
2023-03-20T20:13:25.835Z,56.50
2023-03-20T20:15:56.314Z,56.40
2023-03-20T20:18:29.376Z,56.40
2023-03-20T20:22:00.011Z,56.30
2023-03-20T20:23:49.167Z,56.20
2023-03-20T20:26:18.632Z,56.10
2023-03-20T20:28:48.047Z,56.10
2023-03-20T20:31:18.147Z,56.00
2023-03-20T20:34:09.988Z,55.90
2023-03-20T20:37:32.187Z,55.90
2023-03-20T20:39:29.241Z,55.90
2023-03-20T20:41:58.502Z,55.80
2023-03-20T20:44:28.346Z,55.70
2023-03-20T20:46:57.840Z,55.70
2023-03-20T20:49:28.907Z,55.60
2023-03-20T20:51:58.825Z,55.50
2023-03-20T20:54:29.081Z,55.40
2023-03-20T20:56:58.366Z,55.40
2023-03-20T20:59:28.094Z,55.30
2023-03-20T21:01:57.518Z,55.30
2023-03-20T21:04:28.170Z,55.20
2023-03-20T21:07:09.448Z,55.10
2023-03-20T21:09:39.922Z,55.20
2023-03-20T21:12:10.711Z,55.70
2023-03-20T21:14:42.602Z,56.10
2023-03-20T21:17:12.556Z,56.20
2023-03-20T21:19:44.186Z,56.50
2023-03-20T21:22:16.095Z,57.10
2023-03-20T21:24:45.436Z,57.60
2023-03-20T21:27:16.569Z,57.80
2023-03-20T21:29:48.700Z,57.90
2023-03-20T21:32:23.599Z,58.10
2023-03-20T21:34:54.465Z,58.20
2023-03-20T21:38:22.968Z,58.20
2023-03-20T21:40:13.550Z,58.20
2023-03-20T21:42:43.024Z,58.30
2023-03-20T21:46:10.874Z,58.30
2023-03-20T21:48:39.481Z,58.30
2023-03-20T21:51:39.795Z,58.40
2023-03-20T21:54:48.600Z,58.40
2023-03-20T22:02:23.635Z,58.60
2023-03-20T22:08:26.987Z,58.30
2023-03-20T22:11:35.007Z,58.20
2023-03-20T22:14:19.019Z,58.40
2023-03-20T22:17:09.377Z,58.50
2023-03-20T22:25:30.641Z,58.40
2023-03-20T22:28:21.962Z,58.50
2023-03-20T22:42:28.522Z,58.40
2023-03-20T22:47:21.276Z,58.30
2023-03-20T22:49:50.478Z,58.10
2023-03-20T22:52:31.863Z,58.20
2023-03-20T22:55:06.706Z,58.10
2023-03-20T22:57:45.526Z,58.10
2023-03-20T23:00:20.255Z,58.00
2023-03-20T23:02:49.400Z,58.10
2023-03-20T23:05:18.792Z,58.00
2023-03-20T23:07:47.952Z,57.90
2023-03-20T23:10:17.239Z,57.90
2023-03-20T23:12:47.821Z,58.00
2023-03-20T23:15:17.050Z,58.00
2023-03-20T23:17:46.248Z,57.90
2023-03-20T23:20:20.291Z,58.40
2023-03-20T23:22:51.444Z,57.80
2023-03-20T23:25:36.465Z,57.80
2023-03-20T23:28:09.925Z,57.70
2023-03-20T23:30:48.131Z,57.70
2023-03-20T23:33:21.275Z,57.70
2023-03-20T23:35:51.415Z,57.60
2023-03-20T23:38:22.316Z,57.50
2023-03-20T23:40:51.853Z,57.50
2023-03-20T23:43:22.834Z,57.40
2023-03-20T23:45:52.152Z,57.40
2023-03-20T23:48:21.846Z,57.50
2023-03-20T23:50:53.481Z,57.40
2023-03-20T23:53:23.948Z,57.30
2023-03-20T23:55:55.396Z,57.50
2023-03-20T23:58:28.280Z,57.30
